Time;durP1;ratioP1;P1;durP2;ratioP2;P2;SDS_P1;SDS_P2;PMS_P1;PMS_P2;Temp;Humidity;BMP_temperature;BMP_pressure;BME280_temperature;BME280_humidity;BME280_pressure;Samples;Min_cycle;Max_cycle;Signal;HPM_P1;HPM_P2
2021/12/08 00:03:56;;;;;;;4.95;1.90;;;6.00;97.50;;;;;;10480794;28;20479;-73
2021/12/08 00:09:25;;;;;;;7.82;2.25;;;6.00;97.60;;;;;;10475943;28;20029;-73
2021/12/08 00:14:24;;;;;;;4.80;1.95;;;6.00;97.60;;;;;;10485921;28;20028;-71
2021/12/08 00:19:27;;;;;;;6.13;1.67;;;6.00;97.60;;;;;;10491617;28;20375;-72
2021/12/08 00:24:28;;;;;;;5.22;1.65;;;6.00;97.60;;;;;;10494118;28;20036;-65
2021/12/08 00:29:29;;;;;;;5.45;1.63;;;6.00;97.70;;;;;;10500289;28;20634;-73
2021/12/08 00:34:31;;;;;;;3.85;1.30;;;6.00;97.70;;;;;;10479527;28;20025;-69
2021/12/08 00:39:33;;;;;;;5.22;1.85;;;6.00;97.70;;;;;;10488691;28;20178;-73
2021/12/08 00:44:34;;;;;;;5.43;1.50;;;6.00;97.70;;;;;;10490306;28;20043;-72
2021/12/08 00:49:35;;;;;;;5.43;1.90;;;6.00;97.70;;;;;;10483961;28;20379;-72
2021/12/08 00:54:35;;;;;;;2.50;1.40;;;5.90;97.70;;;;;;10491163;28;20031;-69
2021/12/08 00:59:37;;;;;;;2.80;1.63;;;6.10;97.80;;;;;;10492421;28;20029;-71
2021/12/08 01:04:38;;;;;;;5.30;1.52;;;6.10;97.80;;;;;;10484771;28;20013;-68
2021/12/08 01:09:39;;;;;;;5.93;1.83;;;6.10;97.80;;;;;;10490323;28;20036;-71
2021/12/08 01:14:40;;;;;;;3.65;1.80;;;6.10;97.80;;;;;;10474215;28;20017;-66
2021/12/08 01:19:41;;;;;;;4.70;1.80;;;6.10;97.80;;;;;;10492626;28;20356;-73
2021/12/08 01:24:41;;;;;;;3.60;1.83;;;6.10;97.80;;;;;;10488433;28;20029;-72
2021/12/08 01:29:42;;;;;;;5.38;1.77;;;6.10;97.90;;;;;;10482004;28;20036;-72
2021/12/08 01:34:43;;;;;;;4.13;1.70;;;6.10;97.90;;;;;;10477899;28;20020;-73
2021/12/08 01:39:44;;;;;;;5.07;1.85;;;6.10;97.90;;;;;;10485682;28;20596;-73
2021/12/08 01:50:05;;;;;;;;;;;6.10;97.90;;;;;;10485728;28;20075;-73
2021/12/08 01:55:07;;;;;;;6.30;1.80;;;6.10;98.20;;;;;;10489194;28;19905;-70
2021/12/08 02:00:11;;;;;;;5.85;1.80;;;6.10;97.90;;;;;;10488150;28;20028;-73
2021/12/08 02:05:12;;;;;;;3.85;1.50;;;6.10;98.00;;;;;;10476395;28;20419;-72
2021/12/08 02:10:13;;;;;;;4.45;1.63;;;6.10;98.00;;;;;;10488396;28;20456;-73
2021/12/08 02:15:17;;;;;;;6.20;2.05;;;6.50;98.10;;;;;;10488427;28;20033;-72
2021/12/08 02:20:21;;;;;;;2.83;1.70;;;6.20;98.10;;;;;;10488316;28;20032;-73
2021/12/08 02:25:24;;;;;;;3.50;1.77;;;6.20;98.10;;;;;;10487791;28;20024;-68
2021/12/08 02:51:30;;;;;;;;;;;6.20;98.20;;;;;;10488301;28;20048;-70
2021/12/08 02:56:31;;;;;;;3.72;2.08;;;6.20;98.60;;;;;;10487778;28;19905;-72
2021/12/08 03:01:34;;;;;;;3.67;2.40;;;6.20;98.20;;;;;;10486868;28;20366;-73
2021/12/08 03:06:35;;;;;;;7.95;2.63;;;6.20;98.20;;;;;;10475319;28;20024;-73
2021/12/08 03:11:36;;;;;;;3.65;2.38;;;6.20;98.30;;;;;;10484760;28;20123;-71
2021/12/08 03:16:40;;;;;;;3.53;1.92;;;6.20;98.30;;;;;;10471831;28;20029;-68
2021/12/08 03:21:41;;;;;;;4.65;2.45;;;6.30;98.30;;;;;;10484551;28;20216;-72
2021/12/08 03:26:54;;;;;;;4.53;2.55;;;6.30;98.30;;;;;;10484262;28;20036;-71
2021/12/08 03:32:05;;;;;;;3.67;2.40;;;6.30;98.40;;;;;;10484800;28;20045;-72
2021/12/08 03:37:07;;;;;;;6.75;2.78;;;6.30;98.40;;;;;;10473261;28;20017;-70
2021/12/08 03:42:09;;;;;;;3.40;2.40;;;6.30;98.40;;;;;;10483161;28;20471;-72
2021/12/08 03:47:15;;;;;;;5.80;2.55;;;6.30;98.40;;;;;;10480842;28;20101;-72
2021/12/08 03:52:16;;;;;;;6.18;3.10;;;6.90;98.60;;;;;;10493376;28;20103;-72
2021/12/08 03:57:17;;;;;;;5.43;2.60;;;6.40;98.50;;;;;;10493927;28;20089;-73
2021/12/08 04:02:17;;;;;;;3.42;2.42;;;6.40;98.60;;;;;;10493454;28;20111;-72
2021/12/08 04:07:19;;;;;;;4.95;2.60;;;6.40;98.60;;;;;;10481875;28;20467;-72
2021/12/08 04:12:22;;;;;;;4.25;2.95;;;6.40;98.60;;;;;;10473845;28;20033;-65
2021/12/08 04:17:24;;;;;;;6.03;2.88;;;6.80;98.70;;;;;;10491298;28;20024;-72
2021/12/08 04:22:38;;;;;;;4.53;2.60;;;6.40;98.70;;;;;;10490748;28;20017;-70
2021/12/08 04:27:41;;;;;;;4.32;2.97;;;6.40;98.80;;;;;;10490611;28;20093;-72
2021/12/08 04:32:42;;;;;;;4.93;2.63;;;6.50;98.70;;;;;;10490766;28;20162;-70
2021/12/08 04:37:48;;;;;;;4.32;2.38;;;6.50;98.80;;;;;;10480340;28;20060;-73
2021/12/08 05:09:28;;;;;;;3.08;2.08;;;6.50;98.90;;;;;;10484872;28;20119;-72
2021/12/08 05:14:43;;;;;;;4.60;2.50;;;6.50;99.20;;;;;;10489241;28;20040;-71
2021/12/08 05:19:49;;;;;;;4.47;2.53;;;6.50;98.90;;;;;;10458419;28;20028;-72
2021/12/08 05:24:53;;;;;;;4.88;2.33;;;6.70;99.00;;;;;;10488531;28;20032;-70
2021/12/08 05:30:23;;;;;;;4.22;1.85;;;6.60;99.00;;;;;;10488593;28;20040;-72
2021/12/08 05:35:25;;;;;;;3.15;2.00;;;6.50;99.10;;;;;;10477007;28;20386;-73
2021/12/08 05:40:55;;;;;;;2.42;1.98;;;6.50;99.20;;;;;;10485741;28;20017;-72
2021/12/08 05:45:56;;;;;;;4.53;2.13;;;6.70;99.20;;;;;;10466761;28;20132;-72
2021/12/08 05:51:23;;;;;;;5.68;2.28;;;6.50;99.00;;;;;;10487057;28;20045;-73
2021/12/08 05:56:23;;;;;;;6.13;2.13;;;6.50;99.10;;;;;;10487367;28;20024;-71
2021/12/08 06:01:33;;;;;;;3.55;2.20;;;6.50;99.10;;;;;;10486741;28;20032;-71
2021/12/08 06:06:35;;;;;;;6.72;2.13;;;6.50;99.10;;;;;;10475175;28;20368;-68
2021/12/08 06:11:36;;;;;;;2.90;1.88;;;6.50;99.10;;;;;;10486909;28;20424;-68
2021/12/08 06:16:40;;;;;;;4.32;1.70;;;6.50;99.10;;;;;;10486395;28;20028;-70
2021/12/08 06:21:41;;;;;;;4.88;1.92;;;6.50;99.10;;;;;;10486576;28;20037;-71
2021/12/08 06:26:43;;;;;;;4.80;2.00;;;6.50;99.10;;;;;;10485854;28;20036;-70
2021/12/08 06:31:50;;;;;;;2.75;1.73;;;6.50;99.10;;;;;;10486327;28;20510;-70
2021/12/08 06:37:14;;;;;;;5.82;2.53;;;6.50;99.10;;;;;;10475001;28;20031;-72
2021/12/08 06:42:20;;;;;;;3.67;1.77;;;6.50;99.20;;;;;;10483519;28;20012;-73
2021/12/08 06:47:26;;;;;;;4.40;1.73;;;6.60;99.20;;;;;;10479768;28;20013;-73
2021/12/08 06:52:31;;;;;;;5.53;1.30;;;6.90;99.20;;;;;;10485546;28;20075;-67
2021/12/08 06:58:01;;;;;;;3.03;1.63;;;6.50;99.10;;;;;;10484953;28;20028;-72
2021/12/08 07:03:31;;;;;;;2.60;1.63;;;6.50;99.20;;;;;;10482841;28;20024;-73
2021/12/08 07:08:33;;;;;;;;;;;6.50;99.10;;;;;;10475066;28;20692;-73
2021/12/08 07:13:36;;;;;;;3.90;1.50;;;6.50;99.50;;;;;;10485344;28;19917;-72
2021/12/08 07:18:52;;;;;;;3.95;1.45;;;6.50;99.10;;;;;;10484947;28;20028;-72
2021/12/08 07:24:00;;;;;;;3.72;1.45;;;6.50;99.10;;;;;;10483889;28;20494;-71
2021/12/08 07:29:02;;;;;;;2.50;1.60;;;6.50;99.10;;;;;;10484234;28;20494;-66
2021/12/08 07:34:07;;;;;;;3.65;1.50;;;6.50;99.10;;;;;;10482058;28;20103;-71
2021/12/08 07:39:14;;;;;;;2.38;1.65;;;6.50;99.10;;;;;;10474609;28;20012;-69
2021/12/08 07:44:15;;;;;;;2.80;1.30;;;6.50;99.10;;;;;;10486080;28;20020;-68
2021/12/08 07:49:24;;;;;;;4.60;1.67;;;6.50;99.10;;;;;;10479854;28;20139;-73
2021/12/08 07:54:25;;;;;;;4.25;1.35;;;6.50;99.10;;;;;;10486224;28;20024;-70
2021/12/08 07:59:28;;;;;;;3.13;1.23;;;6.50;99.20;;;;;;10454899;28;20021;-68
2021/12/08 08:04:28;;;;;;;4.78;1.35;;;6.60;99.20;;;;;;10470392;28;20062;-66
2021/12/08 08:09:35;;;;;;;2.67;1.15;;;6.60;99.10;;;;;;10480216;28;20337;-72
2021/12/08 08:14:40;;;;;;;4.80;1.20;;;6.60;99.10;;;;;;10476978;28;20027;-67
2021/12/08 08:19:45;;;;;;;3.80;1.20;;;6.70;99.10;;;;;;10483173;28;20016;-67
2021/12/08 08:24:47;;;;;;;2.85;1.10;;;6.60;99.10;;;;;;10468855;28;20021;-67
2021/12/08 08:29:48;;;;;;;2.70;1.00;;;6.60;99.10;;;;;;10483797;28;20384;-70
2021/12/08 08:34:59;;;;;;;2.38;1.00;;;6.60;99.10;;;;;;10471494;28;20028;-68
2021/12/08 08:40:09;;;;;;;4.57;1.40;;;6.60;99.10;;;;;;10487617;28;20033;-67
2021/12/08 08:45:19;;;;;;;2.92;1.30;;;6.60;99.00;;;;;;10480716;28;20025;-65
2021/12/08 08:50:25;;;;;;;3.70;1.42;;;6.60;99.00;;;;;;10487357;28;20040;-69
2021/12/08 08:55:33;;;;;;;4.80;1.50;;;6.60;99.00;;;;;;10456933;28;20021;-67
2021/12/08 09:00:41;;;;;;;5.55;1.27;;;6.60;99.00;;;;;;10486048;28;20479;-69
2021/12/08 09:05:51;;;;;;;3.45;1.42;;;6.80;99.10;;;;;;10477701;28;20023;-70
2021/12/08 09:11:06;;;;;;;4.00;1.35;;;6.60;99.00;;;;;;10489282;28;20516;-70
2021/12/08 09:16:15;;;;;;;3.05;0.77;;;6.60;99.00;;;;;;10489330;28;20024;-68
2021/12/08 09:21:24;;;;;;;2.28;1.08;;;6.60;98.90;;;;;;10455577;28;20096;-68
2021/12/08 09:26:30;;;;;;;4.65;1.08;;;6.60;98.90;;;;;;10458130;28;20024;-71
2021/12/08 09:31:56;;;;;;;3.10;0.95;;;6.70;98.90;;;;;;10460263;28;20140;-69
2021/12/08 09:37:14;;;;;;;3.53;1.20;;;6.70;98.90;;;;;;10454353;28;20075;-72
2021/12/08 09:42:24;;;;;;;5.40;1.25;;;6.70;98.80;;;;;;10461938;28;20017;-72
2021/12/08 09:47:29;;;;;;;7.38;1.75;;;6.70;98.80;;;;;;10463151;28;20017;-70
2021/12/08 09:52:30;;;;;;;4.75;1.38;;;7.00;98.80;;;;;;10453743;28;20071;-72
2021/12/08 09:57:31;;;;;;;6.07;1.50;;;6.80;98.60;;;;;;10450969;28;20051;-66
2021/12/08 10:02:35;;;;;;;6.38;1.38;;;7.00;98.60;;;;;;10458637;28;20021;-72
2021/12/08 10:07:37;;;;;;;4.15;1.40;;;7.00;98.60;;;;;;10451609;28;20048;-76
2021/12/08 10:12:38;;;;;;;11.10;1.42;;;7.10;98.60;;;;;;10450270;28;20028;-72
2021/12/08 10:17:39;;;;;;;5.45;1.48;;;7.30;98.50;;;;;;10451066;28;20039;-67
2021/12/08 10:22:43;;;;;;;5.10;1.40;;;7.60;98.30;;;;;;10449079;28;20029;-72
2021/12/08 10:28:15;;;;;;;5.07;1.58;;;7.50;98.20;;;;;;10448734;28;20392;-70
2021/12/08 10:38:48;;;;;;;7.38;1.08;;;7.70;98.10;;;;;;10455404;28;20036;-69
2021/12/08 10:43:59;;;;;;;6.32;1.35;;;7.70;98.20;;;;;;10461618;28;20031;-67
2021/12/08 10:54:27;;;;;;;8.23;1.30;;;7.80;97.90;;;;;;10453803;28;20036;-75
2021/12/08 11:00:08;;;;;;;3.00;1.10;;;7.80;97.90;;;;;;10451752;28;20024;-70
2021/12/08 11:05:24;;;;;;;7.20;1.23;;;7.80;97.90;;;;;;10450744;28;20144;-71
2021/12/08 11:10:26;;;;;;;2.47;0.90;;;8.00;97.90;;;;;;10449654;28;20379;-68
2021/12/08 11:15:29;;;;;;;1.75;0.93;;;7.90;97.80;;;;;;10450925;28;20029;-66
2021/12/08 11:20:32;;;;;;;3.88;0.88;;;8.00;97.80;;;;;;10453505;28;20460;-71
2021/12/08 11:25:40;;;;;;;3.17;1.15;;;8.00;97.80;;;;;;10468162;28;20040;-72
2021/12/08 11:30:41;;;;;;;4.50;1.00;;;7.90;97.80;;;;;;10456449;28;20044;-73
2021/12/08 11:35:42;;;;;;;5.25;1.08;;;7.90;97.90;;;;;;10456238;28;20378;-71
2021/12/08 11:40:42;;;;;;;5.88;1.20;;;7.80;98.00;;;;;;10472428;28;20024;-75
2021/12/08 11:45:43;;;;;;;3.67;1.63;;;7.80;98.00;;;;;;10481576;28;20478;-70
2021/12/08 11:50:44;;;;;;;7.80;1.60;;;7.70;98.10;;;;;;10486416;28;20048;-67
2021/12/08 11:55:45;;;;;;;5.55;1.33;;;7.70;98.20;;;;;;10486715;28;20028;-69
2021/12/08 12:00:50;;;;;;;4.82;1.50;;;7.70;98.20;;;;;;10485843;28;20387;-68
2021/12/08 12:05:51;;;;;;;4.50;1.45;;;7.60;98.20;;;;;;10481802;28;20070;-66
2021/12/08 12:10:56;;;;;;;6.40;1.17;;;7.10;98.10;;;;;;10490847;28;20052;-69
2021/12/08 12:15:57;;;;;;;3.25;1.02;;;7.70;98.20;;;;;;10490752;28;20035;-73
2021/12/08 12:21:12;;;;;;;4.13;1.40;;;7.60;98.30;;;;;;10471655;28;20409;-74
2021/12/08 12:26:26;;;;;;;6.22;1.27;;;7.60;98.30;;;;;;10460654;28;20571;-73
2021/12/08 12:31:38;;;;;;;8.38;1.85;;;7.60;98.60;;;;;;10476522;28;20040;-70
2021/12/08 12:36:39;;;;;;;7.07;1.52;;;7.60;98.30;;;;;;10481676;28;20036;-71
2021/12/08 12:41:41;;;;;;;3.70;1.27;;;7.60;98.30;;;;;;10480133;28;20036;-69
2021/12/08 12:47:24;;;;;;;3.38;1.45;;;7.60;98.30;;;;;;10482059;28;20024;-76
2021/12/08 12:52:43;;;;;;;5.60;1.50;;;7.60;98.20;;;;;;10410357;28;20048;-73
2021/12/08 12:58:03;;;;;;;8.18;2.13;;;7.60;98.30;;;;;;10483007;28;20037;-70
2021/12/08 13:03:04;;;;;;;5.07;1.60;;;7.60;98.30;;;;;;10481236;28;20037;-70
2021/12/08 13:08:05;;;;;;;4.07;1.52;;;7.50;98.30;;;;;;10481637;28;20478;-73
2021/12/08 13:13:14;;;;;;;5.72;1.58;;;7.50;98.40;;;;;;10480848;28;20048;-71
2021/12/08 13:18:20;;;;;;;3.30;1.52;;;7.60;98.30;;;;;;10477628;28;20024;-69
2021/12/08 13:23:25;;;;;;;4.65;1.77;;;7.60;98.30;;;;;;10477897;28;20028;-66
2021/12/08 13:28:28;;;;;;;4.57;1.50;;;7.60;98.30;;;;;;10476710;28;20051;-64
2021/12/08 13:33:34;;;;;;;5.72;1.70;;;7.60;98.30;;;;;;10471728;28;20036;-64
2021/12/08 13:38:42;;;;;;;3.90;1.92;;;7.60;98.30;;;;;;10472833;28;20025;-66
2021/12/08 13:43:45;;;;;;;3.42;1.30;;;7.60;98.30;;;;;;10480706;28;20020;-65
2021/12/08 13:49:31;;;;;;;6.45;1.92;;;7.60;98.30;;;;;;10481701;28;20549;-65
2021/12/08 13:54:49;;;;;;;4.97;1.55;;;7.60;98.10;;;;;;10277677;28;20512;-65
2021/12/08 13:59:53;;;;;;;2.27;1.53;;;7.60;98.30;;;;;;10455433;28;20040;-64
2021/12/08 14:04:59;;;;;;;4.40;2.03;;;7.70;98.30;;;;;;10475601;28;20078;-66
2021/12/08 14:10:04;;;;;;;5.03;1.52;;;7.50;98.30;;;;;;10461922;28;20043;-66
2021/12/08 14:15:05;;;;;;;4.55;1.35;;;7.50;98.30;;;;;;10467056;28;20048;-66
2021/12/08 14:20:34;;;;;;;4.32;1.60;;;7.60;98.30;;;;;;10462708;28;20040;-65
2021/12/08 14:25:40;;;;;;;5.90;1.45;;;7.60;98.20;;;;;;10463599;28;20041;-66
2021/12/08 14:30:45;;;;;;;4.07;1.63;;;7.50;98.20;;;;;;10461896;28;20445;-65
2021/12/08 14:35:57;;;;;;;4.63;1.58;;;7.50;98.20;;;;;;10460914;28;20021;-66
2021/12/08 14:40:58;;;;;;;4.90;1.38;;;7.50;98.20;;;;;;10466986;28;20027;-65
2021/12/08 14:46:15;;;;;;;4.60;1.70;;;7.50;98.20;;;;;;10464473;28;20379;-65
2021/12/08 14:51:22;;;;;;;2.63;1.17;;;7.50;98.20;;;;;;10455870;28;20053;-65
2021/12/08 14:56:23;;;;;;;4.03;1.27;;;7.60;98.30;;;;;;10459048;28;20016;-65
2021/12/08 15:01:24;;;;;;;3.90;1.08;;;7.40;98.20;;;;;;10486022;28;20029;-65
2021/12/08 15:06:25;;;;;;;5.07;1.63;;;7.40;98.30;;;;;;10474832;28;20032;-65
2021/12/08 15:11:29;;;;;;;3.75;1.30;;;7.40;98.50;;;;;;10486776;28;20123;-65
2021/12/08 15:16:30;;;;;;;2.92;1.10;;;7.40;98.30;;;;;;10484774;28;20048;-66
2021/12/08 15:21:36;;;;;;;4.32;1.38;;;7.40;98.30;;;;;;10485205;28;20045;-66
2021/12/08 15:26:38;;;;;;;3.70;1.17;;;7.30;98.30;;;;;;10484290;28;20016;-66
2021/12/08 15:31:38;;;;;;;3.30;1.27;;;7.40;98.30;;;;;;10485835;28;20044;-66
2021/12/08 15:36:39;;;;;;;5.03;1.27;;;7.30;98.30;;;;;;10474624;28;20483;-67
2021/12/08 15:41:46;;;;;;;5.90;1.42;;;7.30;98.30;;;;;;10483694;28;20558;-67
2021/12/08 15:46:49;;;;;;;1.83;1.30;;;7.30;98.30;;;;;;10486384;28;20040;-66
2021/12/08 15:51:51;;;;;;;3.33;1.20;;;7.20;98.30;;;;;;10493874;28;20051;-65
2021/12/08 15:56:58;;;;;;;3.75;2.20;;;7.20;98.20;;;;;;10506286;28;20043;-66
2021/12/08 16:02:01;;;;;;;3.42;1.30;;;7.20;98.20;;;;;;10492699;28;20020;-72
2021/12/08 16:07:04;;;;;;;4.30;1.50;;;7.20;98.50;;;;;;10466100;28;20045;-68
2021/12/08 16:12:09;;;;;;;3.03;1.42;;;7.20;98.20;;;;;;10454155;28;20063;-68
2021/12/08 16:17:15;;;;;;;3.35;1.30;;;7.20;98.20;;;;;;10454746;28;20021;-66
2021/12/08 16:22:18;;;;;;;2.83;1.15;;;7.20;98.20;;;;;;10450213;28;20451;-69
2021/12/08 16:27:21;;;;;;;2.70;1.30;;;7.20;98.20;;;;;;10457968;28;20029;-68
2021/12/08 16:32:24;;;;;;;4.47;1.58;;;7.20;98.20;;;;;;10467464;28;20127;-68
2021/12/08 16:37:26;;;;;;;3.00;1.27;;;7.20;98.50;;;;;;10481145;28;20027;-67
2021/12/08 16:47:51;;;;;;;3.47;1.70;;;7.30;98.10;;;;;;10467086;28;20067;-68
2021/12/08 16:52:54;;;;;;;3.63;1.70;;;7.30;98.20;;;;;;10468864;28;20388;-75
2021/12/08 16:57:57;;;;;;;3.53;1.60;;;7.30;98.20;;;;;;10470245;28;20027;-76
2021/12/08 17:02:58;;;;;;;4.88;1.85;;;7.20;98.20;;;;;;10491519;28;20055;-78
2021/12/08 17:07:59;;;;;;;8.95;1.50;;;7.20;98.20;;;;;;10476118;28;20490;-73
2021/12/08 17:13:00;;;;;;;2.65;1.52;;;7.20;98.20;;;;;;10489412;28;20047;-73
2021/12/08 17:18:01;;;;;;;3.67;1.80;;;7.20;98.20;;;;;;10470585;28;20082;-75
2021/12/08 17:23:02;;;;;;;5.38;1.75;;;7.30;98.20;;;;;;10468824;28;20078;-77
2021/12/08 17:28:03;;;;;;;3.45;1.77;;;7.10;98.10;;;;;;10488365;28;20284;-75
2021/12/08 17:33:05;;;;;;;5.43;1.80;;;7.00;98.10;;;;;;10486269;28;20075;-77
2021/12/08 17:38:06;;;;;;;5.13;1.85;;;7.00;98.10;;;;;;10479344;28;20029;-77
2021/12/08 17:43:07;;;;;;;3.55;1.95;;;6.90;98.10;;;;;;10486223;28;20030;-75
2021/12/08 17:48:07;;;;;;;7.82;2.05;;;6.90;98.10;;;;;;10492336;28;20059;-76
2021/12/08 17:53:08;;;;;;;3.80;2.15;;;7.00;98.10;;;;;;10495079;28;20498;-76
2021/12/08 17:58:10;;;;;;;2.95;1.67;;;7.00;98.10;;;;;;10486080;28;20028;-75
2021/12/08 18:03:12;;;;;;;8.38;1.80;;;6.90;98.10;;;;;;10482088;28;20077;-76
2021/12/08 18:08:14;;;;;;;3.85;1.88;;;6.90;98.10;;;;;;10473900;28;20328;-75
2021/12/08 18:13:15;;;;;;;3.95;1.98;;;7.00;98.10;;;;;;10486202;28;20056;-76
2021/12/08 18:18:16;;;;;;;7.63;2.10;;;7.20;98.10;;;;;;10498114;28;20439;-68
2021/12/08 18:23:17;;;;;;;4.97;2.03;;;6.90;98.00;;;;;;10487364;28;20112;-75
2021/12/08 18:28:19;;;;;;;2.97;1.83;;;6.70;98.30;;;;;;10487387;28;20067;-76
2021/12/08 18:33:21;;;;;;;4.95;2.05;;;6.70;98.30;;;;;;10480477;28;20486;-74
2021/12/08 18:38:44;;;;;;;4.80;1.85;;;6.80;98.30;;;;;;10454670;28;20029;-75
2021/12/08 18:43:48;;;;;;;4.35;2.20;;;7.00;98.30;;;;;;10452044;28;20033;-73
2021/12/08 18:48:50;;;;;;;6.25;2.45;;;6.80;98.20;;;;;;10446844;28;20033;-70
2021/12/08 18:53:54;;;;;;;4.05;2.13;;;6.90;98.20;;;;;;10452227;28;20040;-73
2021/12/08 18:58:55;;;;;;;4.75;2.42;;;6.90;98.10;;;;;;10458879;28;20086;-78
2021/12/08 19:03:56;;;;;;;5.68;2.08;;;6.90;98.10;;;;;;10467739;28;20016;-75
2021/12/08 19:08:58;;;;;;;6.25;2.05;;;6.90;98.10;;;;;;10463735;28;20036;-75
2021/12/08 19:13:58;;;;;;;4.78;2.13;;;7.00;98.10;;;;;;10461218;28;20387;-70
2021/12/08 19:18:59;;;;;;;5.40;1.85;;;6.80;98.00;;;;;;10470095;28;20028;-75
2021/12/08 19:24:00;;;;;;;4.47;2.10;;;6.90;98.00;;;;;;10459947;28;20029;-76
2021/12/08 19:29:02;;;;;;;5.35;2.15;;;6.80;98.00;;;;;;10455871;28;20517;-77
2021/12/08 19:34:03;;;;;;;3.80;1.80;;;6.90;98.00;;;;;;10465364;28;20075;-77
2021/12/08 19:39:04;;;;;;;5.20;2.35;;;6.80;98.00;;;;;;10461109;28;20086;-77
2021/12/08 19:44:08;;;;;;;2.15;1.80;;;6.80;98.00;;;;;;10460732;28;20105;-76
2021/12/08 19:49:09;;;;;;;3.38;1.90;;;6.80;98.00;;;;;;10459972;28;20415;-75
2021/12/08 19:54:11;;;;;;;5.25;2.10;;;6.80;98.00;;;;;;10454799;28;20524;-79
2021/12/08 19:59:13;;;;;;;4.63;2.28;;;6.80;98.00;;;;;;10485442;28;20032;-74
2021/12/08 20:04:16;;;;;;;4.57;2.10;;;6.80;98.00;;;;;;10466695;28;20045;-69
2021/12/08 20:09:17;;;;;;;3.17;2.10;;;6.80;97.90;;;;;;10465028;28;20390;-66
2021/12/08 20:14:18;;;;;;;3.88;2.03;;;6.80;97.90;;;;;;10466281;28;20025;-67
2021/12/08 20:19:19;;;;;;;6.30;2.20;;;6.80;97.90;;;;;;10457813;28;20472;-67
2021/12/08 20:24:20;;;;;;;5.55;2.60;;;6.80;97.90;;;;;;10456514;28;20039;-67
2021/12/08 20:29:21;;;;;;;4.75;2.38;;;6.70;97.90;;;;;;10456210;28;20082;-66
2021/12/08 20:34:22;;;;;;;8.52;2.13;;;6.80;97.90;;;;;;10460394;28;20021;-68
2021/12/08 20:39:22;;;;;;;9.82;2.60;;;6.70;97.90;;;;;;10461276;28;20036;-65
2021/12/08 20:44:26;;;;;;;4.03;2.30;;;6.80;97.90;;;;;;10462657;28;20024;-68
2021/12/08 20:49:27;;;;;;;6.10;2.33;;;6.70;97.80;;;;;;10460354;28;20502;-67
2021/12/08 20:54:30;;;;;;;4.35;2.08;;;6.70;97.80;;;;;;10460582;28;20037;-67
2021/12/08 20:59:31;;;;;;;3.92;2.20;;;6.70;97.80;;;;;;10461693;28;20025;-67
2021/12/08 21:04:35;;;;;;;5.20;1.95;;;6.70;97.80;;;;;;10459210;28;20098;-67
2021/12/08 21:09:36;;;;;;;2.55;1.70;;;6.70;97.80;;;;;;10460820;28;20094;-67
2021/12/08 21:14:39;;;;;;;4.93;2.00;;;6.70;98.00;;;;;;10475498;28;20036;-68
2021/12/08 21:19:41;;;;;;;5.72;2.33;;;6.70;97.80;;;;;;10488707;28;20050;-67
2021/12/08 21:24:42;;;;;;;8.45;2.10;;;6.70;97.80;;;;;;10469695;28;20051;-68
2021/12/08 21:29:43;;;;;;;4.47;2.45;;;6.70;97.80;;;;;;10462658;28;20032;-70
2021/12/08 21:34:49;;;;;;;4.68;2.08;;;6.70;97.90;;;;;;10456790;28;20429;-65
2021/12/08 21:39:50;;;;;;;6.13;2.00;;;6.90;97.90;;;;;;10465156;28;20043;-66
2021/12/08 21:44:50;;;;;;;5.63;2.00;;;7.10;97.90;;;;;;10470996;28;20556;-71
2021/12/08 21:49:51;;;;;;;5.50;2.20;;;6.90;97.80;;;;;;10490461;28;20086;-67
2021/12/08 21:54:52;;;;;;;4.65;2.65;;;6.80;97.80;;;;;;10490041;28;20087;-72
2021/12/08 21:59:52;;;;;;;3.03;2.05;;;6.80;97.80;;;;;;10487954;28;20211;-69
2021/12/08 22:04:53;;;;;;;7.53;2.45;;;6.80;97.80;;;;;;10463974;28;20033;-74
2021/12/08 22:09:54;;;;;;;4.57;2.40;;;6.70;97.80;;;;;;10452577;28;20487;-71
2021/12/08 22:14:54;;;;;;;3.90;2.30;;;6.70;97.80;;;;;;10460012;28;20033;-70
2021/12/08 22:19:55;;;;;;;3.15;2.33;;;6.70;97.80;;;;;;10453949;28;20058;-69
2021/12/08 22:24:56;;;;;;;3.88;2.00;;;6.70;97.80;;;;;;10489644;28;20136;-81
2021/12/08 22:29:57;;;;;;;6.07;2.08;;;6.80;98.30;;;;;;10487485;28;20425;-76
2021/12/08 22:34:58;;;;;;;3.67;2.10;;;6.90;97.90;;;;;;10487530;28;20035;-74
2021/12/08 22:39:58;;;;;;;4.95;2.15;;;6.90;97.90;;;;;;10486525;28;20034;-75
2021/12/08 22:44:59;;;;;;;5.22;2.08;;;6.80;97.90;;;;;;10487812;28;20024;-75
2021/12/08 22:50:00;;;;;;;3.58;1.83;;;6.80;97.90;;;;;;10486850;28;20047;-74
2021/12/08 22:55:05;;;;;;;4.40;2.30;;;6.80;97.90;;;;;;10485313;28;20049;-76
2021/12/08 23:00:27;;;;;;;4.85;2.60;;;6.70;97.90;;;;;;10486610;28;20055;-73
2021/12/08 23:05:29;;;;;;;5.72;2.50;;;6.70;97.90;;;;;;10472159;28;20024;-67
2021/12/08 23:10:35;;;;;;;4.07;2.33;;;6.70;97.90;;;;;;10487438;28;20036;-74
2021/12/08 23:15:36;;;;;;;5.72;2.40;;;6.60;97.90;;;;;;10494101;28;20062;-72
2021/12/08 23:20:45;;;;;;;4.97;2.47;;;6.60;97.70;;;;;;10485141;28;20119;-74
2021/12/08 23:25:46;;;;;;;3.85;2.53;;;6.60;97.90;;;;;;10481225;28;20167;-70
2021/12/08 23:30:47;;;;;;;6.57;3.05;;;6.60;97.90;;;;;;10485036;28;20066;-67
2021/12/08 23:35:59;;;;;;;3.78;2.47;;;6.60;97.80;;;;;;10472725;28;20029;-72
2021/12/08 23:41:00;;;;;;;6.28;3.17;;;6.50;97.80;;;;;;10477645;28;20024;-72
2021/12/08 23:46:02;;;;;;;4.30;2.67;;;6.60;97.80;;;;;;10475977;28;20021;-70
2021/12/08 23:51:05;;;;;;;5.28;3.15;;;6.50;97.80;;;;;;10484488;28;20043;-71
2021/12/08 23:56:07;;;;;;;10.07;3.08;;;6.50;97.80;;;;;;10484703;28;20119;-67
